sensor_id;sensor_type;location;lat;lon;timestamp;P1;durP1;ratioP1;P2;durP2;ratioP2
19225;SDS011;9747;48.536;12.522;2024-02-26T00:02:15;2.00;;;1.90;;
19225;SDS011;9747;48.536;12.522;2024-02-26T00:04:43;2.30;;;2.10;;
19225;SDS011;9747;48.536;12.522;2024-02-26T00:07:11;2.08;;;1.98;;
19225;SDS011;9747;48.536;12.522;2024-02-26T00:09:39;2.17;;;2.08;;
19225;SDS011;9747;48.536;12.522;2024-02-26T00:12:06;2.00;;;1.90;;
19225;SDS011;9747;48.536;12.522;2024-02-26T00:14:34;2.15;;;2.05;;
19225;SDS011;9747;48.536;12.522;2024-02-26T00:17:01;2.00;;;1.90;;
19225;SDS011;9747;48.536;12.522;2024-02-26T00:19:29;1.88;;;1.83;;
19225;SDS011;9747;48.536;12.522;2024-02-26T00:21:57;2.28;;;2.17;;
19225;SDS011;9747;48.536;12.522;2024-02-26T00:24:26;2.35;;;2.17;;
19225;SDS011;9747;48.536;12.522;2024-02-26T00:26:53;2.05;;;1.95;;
19225;SDS011;9747;48.536;12.522;2024-02-26T00:29:21;2.22;;;2.13;;
19225;SDS011;9747;48.536;12.522;2024-02-26T00:31:48;2.03;;;1.92;;
19225;SDS011;9747;48.536;12.522;2024-02-26T00:34:16;2.10;;;2.00;;
19225;SDS011;9747;48.536;12.522;2024-02-26T00:36:44;1.95;;;1.85;;
19225;SDS011;9747;48.536;12.522;2024-02-26T00:39:11;2.10;;;2.00;;
19225;SDS011;9747;48.536;12.522;2024-02-26T00:41:40;2.10;;;2.00;;
19225;SDS011;9747;48.536;12.522;2024-02-26T00:44:08;2.20;;;2.00;;
19225;SDS011;9747;48.536;12.522;2024-02-26T00:46:35;2.15;;;2.05;;
19225;SDS011;9747;48.536;12.522;2024-02-26T00:49:03;2.30;;;2.10;;
19225;SDS011;9747;48.536;12.522;2024-02-26T00:51:30;2.10;;;2.00;;
19225;SDS011;9747;48.536;12.522;2024-02-26T00:53:58;2.20;;;2.10;;
19225;SDS011;9747;48.536;12.522;2024-02-26T00:56:25;2.40;;;2.30;;
19225;SDS011;9747;48.536;12.522;2024-02-26T00:58:54;2.33;;;2.13;;
19225;SDS011;9747;48.536;12.522;2024-02-26T01:01:21;2.45;;;2.08;;
19225;SDS011;9747;48.536;12.522;2024-02-26T01:03:49;2.20;;;2.10;;
19225;SDS011;9747;48.536;12.522;2024-02-26T01:06:16;2.20;;;2.10;;
19225;SDS011;9747;48.536;12.522;2024-02-26T01:08:44;2.20;;;2.10;;
19225;SDS011;9747;48.536;12.522;2024-02-26T01:11:11;2.00;;;1.90;;
19225;SDS011;9747;48.536;12.522;2024-02-26T01:13:39;2.17;;;2.08;;
19225;SDS011;9747;48.536;12.522;2024-02-26T01:16:08;2.10;;;2.00;;
19225;SDS011;9747;48.536;12.522;2024-02-26T01:18:36;2.20;;;2.10;;
19225;SDS011;9747;48.536;12.522;2024-02-26T01:21:04;2.10;;;2.00;;
19225;SDS011;9747;48.536;12.522;2024-02-26T01:23:33;2.20;;;2.10;;
19225;SDS011;9747;48.536;12.522;2024-02-26T01:26:01;2.03;;;1.92;;
19225;SDS011;9747;48.536;12.522;2024-02-26T01:28:29;2.17;;;2.08;;
19225;SDS011;9747;48.536;12.522;2024-02-26T01:30:57;2.53;;;2.42;;
19225;SDS011;9747;48.536;12.522;2024-02-26T01:33:26;2.17;;;2.08;;
19225;SDS011;9747;48.536;12.522;2024-02-26T01:35:54;2.10;;;1.90;;
19225;SDS011;9747;48.536;12.522;2024-02-26T01:38:21;2.05;;;1.95;;
19225;SDS011;9747;48.536;12.522;2024-02-26T01:40:48;2.22;;;2.10;;
19225;SDS011;9747;48.536;12.522;2024-02-26T01:43:16;1.92;;;1.83;;
19225;SDS011;9747;48.536;12.522;2024-02-26T01:45:43;2.10;;;2.00;;
19225;SDS011;9747;48.536;12.522;2024-02-26T01:48:11;2.28;;;2.17;;
19225;SDS011;9747;48.536;12.522;2024-02-26T01:50:39;2.30;;;2.20;;
19225;SDS011;9747;48.536;12.522;2024-02-26T01:53:07;2.20;;;2.10;;
19225;SDS011;9747;48.536;12.522;2024-02-26T01:55:35;2.47;;;2.20;;
19225;SDS011;9747;48.536;12.522;2024-02-26T01:58:06;2.45;;;2.35;;
19225;SDS011;9747;48.536;12.522;2024-02-26T02:00:34;2.20;;;2.00;;
19225;SDS011;9747;48.536;12.522;2024-02-26T02:03:01;2.10;;;2.00;;
19225;SDS011;9747;48.536;12.522;2024-02-26T02:05:29;2.08;;;1.98;;
19225;SDS011;9747;48.536;12.522;2024-02-26T02:07:59;2.30;;;2.10;;
19225;SDS011;9747;48.536;12.522;2024-02-26T02:10:28;2.17;;;2.00;;
19225;SDS011;9747;48.536;12.522;2024-02-26T02:12:56;2.55;;;2.35;;
19225;SDS011;9747;48.536;12.522;2024-02-26T02:15:23;3.78;;;2.10;;
19225;SDS011;9747;48.536;12.522;2024-02-26T02:17:51;2.45;;;2.30;;
19225;SDS011;9747;48.536;12.522;2024-02-26T02:20:19;2.35;;;2.25;;
19225;SDS011;9747;48.536;12.522;2024-02-26T02:22:52;2.10;;;2.00;;
19225;SDS011;9747;48.536;12.522;2024-02-26T02:25:20;2.90;;;2.30;;
19225;SDS011;9747;48.536;12.522;2024-02-26T02:27:47;2.40;;;2.10;;
19225;SDS011;9747;48.536;12.522;2024-02-26T02:30:15;2.38;;;2.10;;
19225;SDS011;9747;48.536;12.522;2024-02-26T02:32:42;2.00;;;1.90;;
19225;SDS011;9747;48.536;12.522;2024-02-26T02:35:10;2.40;;;2.20;;
19225;SDS011;9747;48.536;12.522;2024-02-26T02:37:39;2.30;;;2.20;;
19225;SDS011;9747;48.536;12.522;2024-02-26T02:40:07;2.28;;;2.17;;
19225;SDS011;9747;48.536;12.522;2024-02-26T02:42:35;2.28;;;2.17;;
19225;SDS011;9747;48.536;12.522;2024-02-26T02:45:02;2.05;;;1.95;;
19225;SDS011;9747;48.536;12.522;2024-02-26T02:47:31;2.20;;;2.10;;
19225;SDS011;9747;48.536;12.522;2024-02-26T02:49:58;2.20;;;2.10;;
19225;SDS011;9747;48.536;12.522;2024-02-26T03:04:46;2.10;;;2.00;;
19225;SDS011;9747;48.536;12.522;2024-02-26T03:07:14;2.17;;;2.08;;
19225;SDS011;9747;48.536;12.522;2024-02-26T03:09:41;2.00;;;1.90;;
19225;SDS011;9747;48.536;12.522;2024-02-26T03:12:09;2.25;;;2.05;;
19225;SDS011;9747;48.536;12.522;2024-02-26T03:14:36;2.42;;;2.33;;
19225;SDS011;9747;48.536;12.522;2024-02-26T03:17:04;2.10;;;2.00;;
19225;SDS011;9747;48.536;12.522;2024-02-26T03:19:31;2.17;;;2.08;;
19225;SDS011;9747;48.536;12.522;2024-02-26T03:22:00;2.08;;;1.95;;
19225;SDS011;9747;48.536;12.522;2024-02-26T03:24:28;2.38;;;2.20;;
19225;SDS011;9747;48.536;12.522;2024-02-26T03:26:55;2.38;;;2.17;;
19225;SDS011;9747;48.536;12.522;2024-02-26T03:29:23;2.30;;;2.10;;
19225;SDS011;9747;48.536;12.522;2024-02-26T03:31:51;2.20;;;2.10;;
19225;SDS011;9747;48.536;12.522;2024-02-26T03:34:18;2.42;;;2.22;;
19225;SDS011;9747;48.536;12.522;2024-02-26T03:36:46;2.10;;;2.00;;
19225;SDS011;9747;48.536;12.522;2024-02-26T03:39:14;2.40;;;2.10;;
19225;SDS011;9747;48.536;12.522;2024-02-26T03:41:42;2.20;;;2.10;;
19225;SDS011;9747;48.536;12.522;2024-02-26T03:44:09;2.28;;;2.17;;
19225;SDS011;9747;48.536;12.522;2024-02-26T03:46:37;2.38;;;2.28;;
19225;SDS011;9747;48.536;12.522;2024-02-26T03:49:04;2.13;;;2.03;;
19225;SDS011;9747;48.536;12.522;2024-02-26T03:51:31;2.10;;;2.00;;
19225;SDS011;9747;48.536;12.522;2024-02-26T03:53:59;2.00;;;1.90;;
19225;SDS011;9747;48.536;12.522;2024-02-26T03:56:28;2.30;;;2.20;;
19225;SDS011;9747;48.536;12.522;2024-02-26T03:58:55;2.20;;;2.10;;
19225;SDS011;9747;48.536;12.522;2024-02-26T04:01:24;2.25;;;2.13;;
19225;SDS011;9747;48.536;12.522;2024-02-26T04:03:51;2.47;;;2.28;;
19225;SDS011;9747;48.536;12.522;2024-02-26T04:06:19;2.30;;;2.20;;
19225;SDS011;9747;48.536;12.522;2024-02-26T04:08:47;2.30;;;2.20;;
19225;SDS011;9747;48.536;12.522;2024-02-26T04:11:15;2.15;;;2.05;;
19225;SDS011;9747;48.536;12.522;2024-02-26T04:13:44;2.28;;;2.17;;
19225;SDS011;9747;48.536;12.522;2024-02-26T04:16:14;2.22;;;2.13;;
19225;SDS011;9747;48.536;12.522;2024-02-26T04:18:42;2.25;;;2.15;;
19225;SDS011;9747;48.536;12.522;2024-02-26T04:21:09;2.40;;;2.20;;
19225;SDS011;9747;48.536;12.522;2024-02-26T04:23:37;2.20;;;2.10;;
19225;SDS011;9747;48.536;12.522;2024-02-26T04:26:04;2.40;;;2.20;;
19225;SDS011;9747;48.536;12.522;2024-02-26T04:28:32;2.20;;;2.00;;
19225;SDS011;9747;48.536;12.522;2024-02-26T04:31:01;2.60;;;2.40;;
19225;SDS011;9747;48.536;12.522;2024-02-26T04:33:28;2.22;;;2.13;;
19225;SDS011;9747;48.536;12.522;2024-02-26T04:35:55;2.22;;;2.13;;
19225;SDS011;9747;48.536;12.522;2024-02-26T04:38:23;2.20;;;2.10;;
19225;SDS011;9747;48.536;12.522;2024-02-26T04:40:50;2.00;;;1.90;;
19225;SDS011;9747;48.536;12.522;2024-02-26T04:43:18;2.30;;;2.20;;
19225;SDS011;9747;48.536;12.522;2024-02-26T04:45:45;2.22;;;2.13;;
19225;SDS011;9747;48.536;12.522;2024-02-26T04:48:14;2.15;;;2.05;;
19225;SDS011;9747;48.536;12.522;2024-02-26T04:50:42;2.40;;;2.30;;
19225;SDS011;9747;48.536;12.522;2024-02-26T04:53:09;2.00;;;1.90;;
19225;SDS011;9747;48.536;12.522;2024-02-26T04:55:36;2.20;;;2.00;;
19225;SDS011;9747;48.536;12.522;2024-02-26T04:58:04;2.42;;;2.22;;
19225;SDS011;9747;48.536;12.522;2024-02-26T05:00:31;2.47;;;2.28;;
19225;SDS011;9747;48.536;12.522;2024-02-26T05:02:59;2.25;;;2.05;;
19225;SDS011;9747;48.536;12.522;2024-02-26T05:05:28;2.45;;;2.35;;
19225;SDS011;9747;48.536;12.522;2024-02-26T05:07:55;2.47;;;2.33;;
19225;SDS011;9747;48.536;12.522;2024-02-26T05:10:22;2.50;;;2.30;;
19225;SDS011;9747;48.536;12.522;2024-02-26T05:12:50;2.25;;;2.15;;
19225;SDS011;9747;48.536;12.522;2024-02-26T05:15:18;2.20;;;2.10;;
19225;SDS011;9747;48.536;12.522;2024-02-26T05:17:45;2.22;;;2.00;;
19225;SDS011;9747;48.536;12.522;2024-02-26T05:20:12;2.22;;;2.10;;
19225;SDS011;9747;48.536;12.522;2024-02-26T05:22:42;2.30;;;2.20;;
19225;SDS011;9747;48.536;12.522;2024-02-26T05:25:09;2.42;;;2.33;;
19225;SDS011;9747;48.536;12.522;2024-02-26T05:27:37;2.22;;;2.03;;
19225;SDS011;9747;48.536;12.522;2024-02-26T05:30:05;2.28;;;2.17;;
19225;SDS011;9747;48.536;12.522;2024-02-26T05:32:34;2.22;;;2.10;;
19225;SDS011;9747;48.536;12.522;2024-02-26T05:35:01;2.13;;;2.03;;
19225;SDS011;9747;48.536;12.522;2024-02-26T05:37:29;2.20;;;2.10;;
19225;SDS011;9747;48.536;12.522;2024-02-26T05:39:58;3.08;;;2.33;;
19225;SDS011;9747;48.536;12.522;2024-02-26T05:42:26;2.30;;;2.10;;
19225;SDS011;9747;48.536;12.522;2024-02-26T05:44:53;2.25;;;2.05;;
19225;SDS011;9747;48.536;12.522;2024-02-26T05:47:21;2.70;;;2.10;;
19225;SDS011;9747;48.536;12.522;2024-02-26T05:49:48;3.63;;;2.05;;
19225;SDS011;9747;48.536;12.522;2024-02-26T05:52:20;2.67;;;2.33;;
19225;SDS011;9747;48.536;12.522;2024-02-26T05:54:47;3.60;;;2.50;;
19225;SDS011;9747;48.536;12.522;2024-02-26T05:57:16;2.22;;;2.00;;
19225;SDS011;9747;48.536;12.522;2024-02-26T05:59:43;5.25;;;2.55;;
19225;SDS011;9747;48.536;12.522;2024-02-26T06:02:11;2.63;;;2.42;;
19225;SDS011;9747;48.536;12.522;2024-02-26T06:04:38;2.63;;;2.25;;
19225;SDS011;9747;48.536;12.522;2024-02-26T06:07:06;2.70;;;2.00;;
19225;SDS011;9747;48.536;12.522;2024-02-26T06:09:33;2.67;;;2.47;;
19225;SDS011;9747;48.536;12.522;2024-02-26T06:12:01;2.60;;;2.40;;
19225;SDS011;9747;48.536;12.522;2024-02-26T06:14:30;2.60;;;2.40;;
19225;SDS011;9747;48.536;12.522;2024-02-26T06:16:58;3.00;;;2.10;;
19225;SDS011;9747;48.536;12.522;2024-02-26T06:19:25;2.47;;;2.28;;
19225;SDS011;9747;48.536;12.522;2024-02-26T06:21:53;4.35;;;2.70;;
19225;SDS011;9747;48.536;12.522;2024-02-26T06:24:20;3.05;;;2.30;;
19225;SDS011;9747;48.536;12.522;2024-02-26T06:26:48;2.47;;;2.25;;
19225;SDS011;9747;48.536;12.522;2024-02-26T06:29:15;2.30;;;2.15;;
19225;SDS011;9747;48.536;12.522;2024-02-26T06:31:44;2.30;;;2.20;;
19225;SDS011;9747;48.536;12.522;2024-02-26T06:34:13;2.30;;;2.10;;
19225;SDS011;9747;48.536;12.522;2024-02-26T06:36:40;2.97;;;2.00;;
19225;SDS011;9747;48.536;12.522;2024-02-26T06:39:08;3.13;;;2.20;;
19225;SDS011;9747;48.536;12.522;2024-02-26T06:41:35;2.28;;;1.85;;
19225;SDS011;9747;48.536;12.522;2024-02-26T06:44:04;2.30;;;2.10;;
19225;SDS011;9747;48.536;12.522;2024-02-26T06:46:32;2.50;;;2.30;;
19225;SDS011;9747;48.536;12.522;2024-02-26T06:49:00;2.75;;;2.55;;
19225;SDS011;9747;48.536;12.522;2024-02-26T06:51:28;3.83;;;2.50;;
19225;SDS011;9747;48.536;12.522;2024-02-26T06:53:55;2.60;;;2.40;;
19225;SDS011;9747;48.536;12.522;2024-02-26T06:56:23;2.60;;;2.40;;
19225;SDS011;9747;48.536;12.522;2024-02-26T06:58:50;3.33;;;2.40;;
19225;SDS011;9747;48.536;12.522;2024-02-26T07:01:17;4.80;;;2.33;;
19225;SDS011;9747;48.536;12.522;2024-02-26T07:03:45;3.22;;;2.40;;
19225;SDS011;9747;48.536;12.522;2024-02-26T07:06:14;3.08;;;2.50;;
19225;SDS011;9747;48.536;12.522;2024-02-26T07:08:41;3.90;;;2.30;;
19225;SDS011;9747;48.536;12.522;2024-02-26T07:11:08;2.75;;;2.35;;
19225;SDS011;9747;48.536;12.522;2024-02-26T07:13:36;3.30;;;2.20;;
19225;SDS011;9747;48.536;12.522;2024-02-26T07:16:04;6.22;;;2.45;;
19225;SDS011;9747;48.536;12.522;2024-02-26T07:18:32;5.57;;;2.60;;
19225;SDS011;9747;48.536;12.522;2024-02-26T07:21:01;2.70;;;2.50;;
19225;SDS011;9747;48.536;12.522;2024-02-26T07:23:30;7.03;;;3.20;;
19225;SDS011;9747;48.536;12.522;2024-02-26T07:25:58;5.68;;;3.72;;
19225;SDS011;9747;48.536;12.522;2024-02-26T07:28:26;4.38;;;3.30;;
19225;SDS011;9747;48.536;12.522;2024-02-26T07:30:53;6.25;;;3.65;;
19225;SDS011;9747;48.536;12.522;2024-02-26T07:33:21;10.85;;;4.15;;
19225;SDS011;9747;48.536;12.522;2024-02-26T07:35:48;12.10;;;4.10;;
19225;SDS011;9747;48.536;12.522;2024-02-26T07:38:16;13.05;;;4.38;;
19225;SDS011;9747;48.536;12.522;2024-02-26T07:40:44;7.95;;;3.63;;
19225;SDS011;9747;48.536;12.522;2024-02-26T07:43:12;6.00;;;3.40;;
19225;SDS011;9747;48.536;12.522;2024-02-26T07:45:39;7.88;;;3.65;;
19225;SDS011;9747;48.536;12.522;2024-02-26T07:48:07;6.38;;;3.42;;
19225;SDS011;9747;48.536;12.522;2024-02-26T07:50:34;5.60;;;3.30;;
19225;SDS011;9747;48.536;12.522;2024-02-26T07:53:01;6.38;;;3.08;;
19225;SDS011;9747;48.536;12.522;2024-02-26T07:55:30;4.53;;;3.42;;
19225;SDS011;9747;48.536;12.522;2024-02-26T07:57:58;8.30;;;3.03;;
19225;SDS011;9747;48.536;12.522;2024-02-26T08:00:26;6.07;;;2.90;;
19225;SDS011;9747;48.536;12.522;2024-02-26T08:02:53;6.53;;;2.92;;
19225;SDS011;9747;48.536;12.522;2024-02-26T08:05:21;6.18;;;3.10;;
19225;SDS011;9747;48.536;12.522;2024-02-26T08:07:48;5.40;;;3.17;;
19225;SDS011;9747;48.536;12.522;2024-02-26T08:10:16;6.00;;;2.90;;
19225;SDS011;9747;48.536;12.522;2024-02-26T08:12:44;2.60;;;2.20;;
19225;SDS011;9747;48.536;12.522;2024-02-26T08:15:12;4.35;;;2.80;;
19225;SDS011;9747;48.536;12.522;2024-02-26T08:17:40;4.13;;;2.72;;
19225;SDS011;9747;48.536;12.522;2024-02-26T08:20:08;5.90;;;2.70;;
19225;SDS011;9747;48.536;12.522;2024-02-26T08:22:36;5.43;;;2.58;;
19225;SDS011;9747;48.536;12.522;2024-02-26T08:25:04;3.92;;;2.67;;
19225;SDS011;9747;48.536;12.522;2024-02-26T08:27:34;3.70;;;2.80;;
19225;SDS011;9747;48.536;12.522;2024-02-26T08:30:01;4.22;;;2.47;;
19225;SDS011;9747;48.536;12.522;2024-02-26T08:32:31;4.13;;;2.70;;
19225;SDS011;9747;48.536;12.522;2024-02-26T08:34:59;2.92;;;2.58;;
19225;SDS011;9747;48.536;12.522;2024-02-26T08:37:26;3.97;;;2.70;;
19225;SDS011;9747;48.536;12.522;2024-02-26T08:39:54;4.60;;;2.50;;
19225;SDS011;9747;48.536;12.522;2024-02-26T08:42:21;4.72;;;2.47;;
19225;SDS011;9747;48.536;12.522;2024-02-26T08:44:49;5.30;;;2.58;;
19225;SDS011;9747;48.536;12.522;2024-02-26T08:47:16;5.03;;;2.65;;
19225;SDS011;9747;48.536;12.522;2024-02-26T08:49:45;5.45;;;2.80;;
19225;SDS011;9747;48.536;12.522;2024-02-26T08:52:13;3.25;;;2.60;;
19225;SDS011;9747;48.536;12.522;2024-02-26T08:54:41;5.07;;;2.80;;
19225;SDS011;9747;48.536;12.522;2024-02-26T08:57:08;3.83;;;2.90;;
19225;SDS011;9747;48.536;12.522;2024-02-26T08:59:35;4.28;;;2.85;;
19225;SDS011;9747;48.536;12.522;2024-02-26T09:02:03;5.50;;;2.80;;
19225;SDS011;9747;48.536;12.522;2024-02-26T09:04:30;3.92;;;2.92;;
19225;SDS011;9747;48.536;12.522;2024-02-26T09:06:59;2.80;;;2.42;;
19225;SDS011;9747;48.536;12.522;2024-02-26T09:09:27;4.75;;;2.90;;
19225;SDS011;9747;48.536;12.522;2024-02-26T09:11:54;5.22;;;3.10;;
19225;SDS011;9747;48.536;12.522;2024-02-26T09:14:22;6.30;;;2.78;;
19225;SDS011;9747;48.536;12.522;2024-02-26T09:16:49;6.57;;;2.80;;
19225;SDS011;9747;48.536;12.522;2024-02-26T09:19:17;5.93;;;3.08;;
19225;SDS011;9747;48.536;12.522;2024-02-26T09:21:45;5.68;;;2.92;;
19225;SDS011;9747;48.536;12.522;2024-02-26T09:24:14;5.75;;;3.38;;
19225;SDS011;9747;48.536;12.522;2024-02-26T09:26:41;3.92;;;2.85;;
19225;SDS011;9747;48.536;12.522;2024-02-26T09:29:08;5.05;;;2.95;;
19225;SDS011;9747;48.536;12.522;2024-02-26T09:31:36;5.35;;;2.90;;
19225;SDS011;9747;48.536;12.522;2024-02-26T09:34:05;5.78;;;3.20;;
19225;SDS011;9747;48.536;12.522;2024-02-26T09:36:33;4.57;;;2.90;;
19225;SDS011;9747;48.536;12.522;2024-02-26T09:39:01;3.45;;;3.00;;
19225;SDS011;9747;48.536;12.522;2024-02-26T09:41:30;3.88;;;2.85;;
19225;SDS011;9747;48.536;12.522;2024-02-26T09:43:58;5.32;;;3.00;;
19225;SDS011;9747;48.536;12.522;2024-02-26T09:46:25;5.75;;;2.95;;
19225;SDS011;9747;48.536;12.522;2024-02-26T09:48:53;4.22;;;2.90;;
19225;SDS011;9747;48.536;12.522;2024-02-26T09:51:20;4.53;;;3.08;;
19225;SDS011;9747;48.536;12.522;2024-02-26T09:53:51;7.03;;;2.90;;
19225;SDS011;9747;48.536;12.522;2024-02-26T09:56:18;5.15;;;3.22;;
19225;SDS011;9747;48.536;12.522;2024-02-26T09:58:47;5.53;;;2.83;;
19225;SDS011;9747;48.536;12.522;2024-02-26T10:01:18;6.30;;;3.05;;
19225;SDS011;9747;48.536;12.522;2024-02-26T10:03:47;4.65;;;2.70;;
19225;SDS011;9747;48.536;12.522;2024-02-26T10:06:21;5.47;;;2.97;;
19225;SDS011;9747;48.536;12.522;2024-02-26T10:08:48;3.08;;;2.53;;
19225;SDS011;9747;48.536;12.522;2024-02-26T10:11:16;3.08;;;2.60;;
19225;SDS011;9747;48.536;12.522;2024-02-26T10:13:44;3.63;;;2.88;;
19225;SDS011;9747;48.536;12.522;2024-02-26T10:16:13;7.50;;;2.92;;
19225;SDS011;9747;48.536;12.522;2024-02-26T10:18:47;3.88;;;2.60;;
19225;SDS011;9747;48.536;12.522;2024-02-26T10:21:16;3.88;;;2.50;;
19225;SDS011;9747;48.536;12.522;2024-02-26T10:23:44;4.28;;;2.70;;
19225;SDS011;9747;48.536;12.522;2024-02-26T10:26:12;5.70;;;2.75;;
19225;SDS011;9747;48.536;12.522;2024-02-26T10:28:42;4.10;;;2.53;;
19225;SDS011;9747;48.536;12.522;2024-02-26T10:31:13;3.00;;;2.35;;
19225;SDS011;9747;48.536;12.522;2024-02-26T10:33:42;3.80;;;2.35;;
19225;SDS011;9747;48.536;12.522;2024-02-26T10:36:10;2.63;;;2.40;;
19225;SDS011;9747;48.536;12.522;2024-02-26T10:38:37;3.50;;;2.35;;
19225;SDS011;9747;48.536;12.522;2024-02-26T10:41:06;2.78;;;2.47;;
19225;SDS011;9747;48.536;12.522;2024-02-26T10:43:34;3.45;;;2.40;;
19225;SDS011;9747;48.536;12.522;2024-02-26T10:46:02;3.15;;;2.30;;
19225;SDS011;9747;48.536;12.522;2024-02-26T10:48:31;4.57;;;2.33;;
19225;SDS011;9747;48.536;12.522;2024-02-26T10:50:58;5.75;;;3.15;;
19225;SDS011;9747;48.536;12.522;2024-02-26T10:53:28;12.75;;;6.55;;
19225;SDS011;9747;48.536;12.522;2024-02-26T10:55:57;11.07;;;4.65;;
19225;SDS011;9747;48.536;12.522;2024-02-26T10:58:27;11.70;;;4.43;;
19225;SDS011;9747;48.536;12.522;2024-02-26T11:00:56;7.18;;;3.53;;
19225;SDS011;9747;48.536;12.522;2024-02-26T11:03:24;7.82;;;3.28;;
19225;SDS011;9747;48.536;12.522;2024-02-26T11:05:53;5.28;;;3.13;;
19225;SDS011;9747;48.536;12.522;2024-02-26T11:08:21;6.03;;;2.70;;
19225;SDS011;9747;48.536;12.522;2024-02-26T11:10:50;3.40;;;2.80;;
19225;SDS011;9747;48.536;12.522;2024-02-26T11:13:21;6.25;;;2.65;;
19225;SDS011;9747;48.536;12.522;2024-02-26T11:15:53;4.32;;;2.45;;
19225;SDS011;9747;48.536;12.522;2024-02-26T11:18:22;2.55;;;2.33;;
19225;SDS011;9747;48.536;12.522;2024-02-26T11:20:50;3.78;;;2.13;;
19225;SDS011;9747;48.536;12.522;2024-02-26T11:23:21;6.60;;;2.42;;
19225;SDS011;9747;48.536;12.522;2024-02-26T11:25:49;3.47;;;2.10;;
19225;SDS011;9747;48.536;12.522;2024-02-26T11:28:18;4.05;;;2.13;;
19225;SDS011;9747;48.536;12.522;2024-02-26T11:30:46;3.00;;;2.25;;
19225;SDS011;9747;48.536;12.522;2024-02-26T11:33:15;2.50;;;2.03;;
19225;SDS011;9747;48.536;12.522;2024-02-26T11:35:42;5.60;;;2.40;;
19225;SDS011;9747;48.536;12.522;2024-02-26T11:38:16;3.70;;;1.95;;
19225;SDS011;9747;48.536;12.522;2024-02-26T11:40:47;4.30;;;2.15;;
19225;SDS011;9747;48.536;12.522;2024-02-26T11:43:15;2.38;;;2.17;;
19225;SDS011;9747;48.536;12.522;2024-02-26T11:45:51;2.45;;;2.05;;
19225;SDS011;9747;48.536;12.522;2024-02-26T11:48:22;2.97;;;1.85;;
19225;SDS011;9747;48.536;12.522;2024-02-26T11:50:51;2.13;;;1.80;;
19225;SDS011;9747;48.536;12.522;2024-02-26T11:53:21;3.22;;;2.05;;
19225;SDS011;9747;48.536;12.522;2024-02-26T11:58:53;20.77;;;19.00;;
19225;SDS011;9747;48.536;12.522;2024-02-26T12:01:36;17.10;;;15.55;;
19225;SDS011;9747;48.536;12.522;2024-02-26T12:04:05;14.55;;;13.02;;
19225;SDS011;9747;48.536;12.522;2024-02-26T12:06:44;12.50;;;11.27;;
19225;SDS011;9747;48.536;12.522;2024-02-26T12:12:06;9.70;;;8.85;;
19225;SDS011;9747;48.536;12.522;2024-02-26T12:14:37;8.48;;;7.78;;
19225;SDS011;9747;48.536;12.522;2024-02-26T12:17:06;8.60;;;7.90;;
19225;SDS011;9747;48.536;12.522;2024-02-26T12:19:34;8.55;;;7.55;;
19225;SDS011;9747;48.536;12.522;2024-02-26T12:22:02;9.35;;;7.22;;
19225;SDS011;9747;48.536;12.522;2024-02-26T12:24:32;7.25;;;6.55;;
19225;SDS011;9747;48.536;12.522;2024-02-26T12:27:00;7.20;;;6.50;;
19225;SDS011;9747;48.536;12.522;2024-02-26T12:29:28;7.28;;;6.68;;
19225;SDS011;9747;48.536;12.522;2024-02-26T12:31:56;7.05;;;6.40;;
19225;SDS011;9747;48.536;12.522;2024-02-26T12:34:24;6.43;;;5.93;;
19225;SDS011;9747;48.536;12.522;2024-02-26T12:36:52;7.32;;;6.63;;
19225;SDS011;9747;48.536;12.522;2024-02-26T12:39:21;6.63;;;5.60;;
19225;SDS011;9747;48.536;12.522;2024-02-26T12:41:48;6.25;;;5.65;;
19225;SDS011;9747;48.536;12.522;2024-02-26T12:44:16;6.25;;;5.75;;
19225;SDS011;9747;48.536;12.522;2024-02-26T12:46:45;6.68;;;5.30;;
19225;SDS011;9747;48.536;12.522;2024-02-26T12:49:14;5.60;;;5.20;;
19225;SDS011;9747;48.536;12.522;2024-02-26T12:51:43;5.47;;;4.97;;
19225;SDS011;9747;48.536;12.522;2024-02-26T12:54:11;5.32;;;4.82;;
19225;SDS011;9747;48.536;12.522;2024-02-26T12:56:39;5.55;;;5.05;;
19225;SDS011;9747;48.536;12.522;2024-02-26T12:59:07;4.93;;;4.63;;
19225;SDS011;9747;48.536;12.522;2024-02-26T13:01:35;5.28;;;4.43;;
19225;SDS011;9747;48.536;12.522;2024-02-26T13:04:04;7.85;;;4.30;;
19225;SDS011;9747;48.536;12.522;2024-02-26T13:06:31;4.40;;;4.00;;
19225;SDS011;9747;48.536;12.522;2024-02-26T13:09:00;6.30;;;3.85;;
19225;SDS011;9747;48.536;12.522;2024-02-26T13:11:28;4.75;;;3.85;;
19225;SDS011;9747;48.536;12.522;2024-02-26T13:13:56;3.90;;;3.60;;
19225;SDS011;9747;48.536;12.522;2024-02-26T13:16:24;6.22;;;3.50;;
19225;SDS011;9747;48.536;12.522;2024-02-26T13:18:53;3.90;;;3.60;;
19225;SDS011;9747;48.536;12.522;2024-02-26T13:21:22;4.95;;;3.90;;
19225;SDS011;9747;48.536;12.522;2024-02-26T13:23:52;3.45;;;3.15;;
19225;SDS011;9747;48.536;12.522;2024-02-26T13:26:21;3.45;;;3.15;;
19225;SDS011;9747;48.536;12.522;2024-02-26T13:28:59;3.42;;;3.15;;
19225;SDS011;9747;48.536;12.522;2024-02-26T13:31:28;3.60;;;3.00;;
19225;SDS011;9747;48.536;12.522;2024-02-26T13:33:56;3.25;;;3.03;;
19225;SDS011;9747;48.536;12.522;2024-02-26T13:36:25;3.00;;;2.80;;
19225;SDS011;9747;48.536;12.522;2024-02-26T13:38:53;2.88;;;2.72;;
19225;SDS011;9747;48.536;12.522;2024-02-26T13:41:21;3.13;;;2.92;;
19225;SDS011;9747;48.536;12.522;2024-02-26T13:43:50;3.22;;;3.00;;
19225;SDS011;9747;48.536;12.522;2024-02-26T13:46:18;3.15;;;2.67;;
19225;SDS011;9747;48.536;12.522;2024-02-26T13:48:45;2.88;;;2.67;;
19225;SDS011;9747;48.536;12.522;2024-02-26T13:51:13;3.00;;;2.80;;
19225;SDS011;9747;48.536;12.522;2024-02-26T13:53:43;2.92;;;2.72;;
19225;SDS011;9747;48.536;12.522;2024-02-26T13:56:11;2.90;;;2.70;;
19225;SDS011;9747;48.536;12.522;2024-02-26T13:58:38;2.95;;;2.75;;
19225;SDS011;9747;48.536;12.522;2024-02-26T14:01:06;3.20;;;2.70;;
19225;SDS011;9747;48.536;12.522;2024-02-26T14:03:33;3.00;;;2.80;;
19225;SDS011;9747;48.536;12.522;2024-02-26T14:06:02;2.63;;;2.40;;
19225;SDS011;9747;48.536;12.522;2024-02-26T14:08:29;2.88;;;2.60;;
19225;SDS011;9747;48.536;12.522;2024-02-26T14:10:59;3.38;;;2.50;;
19225;SDS011;9747;48.536;12.522;2024-02-26T14:13:27;2.50;;;2.40;;
19225;SDS011;9747;48.536;12.522;2024-02-26T14:15:54;2.50;;;2.40;;
19225;SDS011;9747;48.536;12.522;2024-02-26T14:18:22;2.67;;;2.47;;
19225;SDS011;9747;48.536;12.522;2024-02-26T14:20:49;2.60;;;2.40;;
19225;SDS011;9747;48.536;12.522;2024-02-26T14:23:17;5.03;;;2.90;;
19225;SDS011;9747;48.536;12.522;2024-02-26T14:25:45;4.20;;;2.58;;
19225;SDS011;9747;48.536;12.522;2024-02-26T14:28:14;2.53;;;2.25;;
19225;SDS011;9747;48.536;12.522;2024-02-26T14:30:41;2.70;;;2.30;;
19225;SDS011;9747;48.536;12.522;2024-02-26T14:33:09;2.60;;;2.30;;
19225;SDS011;9747;48.536;12.522;2024-02-26T14:35:39;2.15;;;1.95;;
19225;SDS011;9747;48.536;12.522;2024-02-26T14:38:07;2.67;;;2.47;;
19225;SDS011;9747;48.536;12.522;2024-02-26T14:40:34;2.53;;;2.33;;
19225;SDS011;9747;48.536;12.522;2024-02-26T14:43:02;3.78;;;2.25;;
19225;SDS011;9747;48.536;12.522;2024-02-26T14:45:32;2.15;;;1.88;;
19225;SDS011;9747;48.536;12.522;2024-02-26T14:48:00;4.63;;;2.20;;
19225;SDS011;9747;48.536;12.522;2024-02-26T14:50:27;2.58;;;2.40;;
19225;SDS011;9747;48.536;12.522;2024-02-26T14:52:55;3.22;;;2.15;;
19225;SDS011;9747;48.536;12.522;2024-02-26T14:55:23;3.10;;;2.15;;
19225;SDS011;9747;48.536;12.522;2024-02-26T14:57:50;2.50;;;2.03;;
19225;SDS011;9747;48.536;12.522;2024-02-26T15:00:18;2.92;;;1.85;;
19225;SDS011;9747;48.536;12.522;2024-02-26T15:02:47;2.10;;;2.00;;
19225;SDS011;9747;48.536;12.522;2024-02-26T15:05:16;2.90;;;2.10;;
19225;SDS011;9747;48.536;12.522;2024-02-26T15:07:44;5.85;;;2.58;;
19225;SDS011;9747;48.536;12.522;2024-02-26T15:10:12;5.35;;;2.70;;
19225;SDS011;9747;48.536;12.522;2024-02-26T15:12:39;7.38;;;3.38;;